Time;durP1;ratioP1;P1;durP2;ratioP2;P2;SDS_P1;SDS_P2;PMS_P1;PMS_P2;Temp;Humidity;BMP_temperature;BMP_pressure;BME280_temperature;BME280_humidity;BME280_pressure;Samples;Min_cycle;Max_cycle;Signal;HPM_P1;HPM_P2
2023/09/14 00:00:51;;;;;;;13.43;5.40;;;15.70;99.90;;;;;;5012730;28;20183;-75
2023/09/14 00:03:17;;;;;;;15.43;4.07;;;15.70;99.90;;;;;;5016843;28;20193;-75
2023/09/14 00:05:44;;;;;;;7.77;3.70;;;15.60;99.90;;;;;;5017842;28;20469;-75
2023/09/14 00:08:10;;;;;;;9.47;4.00;;;15.60;99.90;;;;;;5004749;28;20422;-73
2023/09/14 00:10:37;;;;;;;8.20;3.50;;;15.60;99.90;;;;;;5011620;28;20524;-74
2023/09/14 00:13:03;;;;;;;15.33;3.90;;;15.60;99.90;;;;;;5019550;28;20505;-74
2023/09/14 00:15:30;;;;;;;7.83;4.63;;;15.60;99.90;;;;;;5013677;28;20429;-77
2023/09/14 00:17:56;;;;;;;6.73;4.40;;;15.60;99.90;;;;;;5019821;28;20663;-77
2023/09/14 00:20:24;;;;;;;5.33;3.07;;;15.60;99.90;;;;;;5011488;28;20449;-77
2023/09/14 00:22:51;;;;;;;9.97;4.80;;;15.60;99.90;;;;;;5014122;28;20190;-77
2023/09/14 00:25:20;;;;;;;10.63;4.77;;;15.60;99.90;;;;;;5005756;28;20438;-77
2023/09/14 00:27:47;;;;;;;9.67;4.70;;;15.60;99.90;;;;;;5012410;28;20800;-76
2023/09/14 00:30:13;;;;;;;6.60;4.07;;;15.60;99.90;;;;;;5011640;28;20442;-74
2023/09/14 00:32:40;;;;;;;8.83;4.47;;;15.50;99.90;;;;;;5012130;28;20430;-74
2023/09/14 00:35:12;;;;;;;6.47;4.00;;;15.50;99.90;;;;;;5010691;28;20475;-75
2023/09/14 00:37:39;;;;;;;7.90;5.10;;;15.40;99.90;;;;;;5014749;28;20432;-74
2023/09/14 00:40:06;;;;;;;8.07;4.23;;;15.40;99.90;;;;;;5007353;28;20474;-75
2023/09/14 00:42:42;;;;;;;7.60;4.03;;;15.40;99.90;;;;;;5010797;28;21172;-75
2023/09/14 00:45:14;;;;;;;8.03;4.07;;;15.40;99.90;;;;;;5009844;28;20949;-75
2023/09/14 00:47:42;;;;;;;14.30;4.37;;;15.40;99.90;;;;;;5019092;28;20476;-75
2023/09/14 00:50:09;;;;;;;7.90;3.83;;;15.30;99.90;;;;;;5011399;28;20446;-75
2023/09/14 00:52:36;;;;;;;16.30;4.97;;;15.30;99.90;;;;;;5020134;28;20422;-75
2023/09/14 00:55:05;;;;;;;8.63;4.90;;;15.30;99.90;;;;;;5008226;28;20432;-75
2023/09/14 00:57:32;;;;;;;6.80;4.27;;;15.20;99.90;;;;;;5014800;28;21023;-76
2023/09/14 00:59:58;;;;;;;6.90;4.37;;;15.10;99.90;;;;;;5013832;28;20454;-74
2023/09/14 01:02:25;;;;;;;10.00;4.93;;;15.00;99.90;;;;;;5013895;28;20449;-76
2023/09/14 01:04:51;;;;;;;18.13;5.63;;;15.00;99.90;;;;;;5013076;28;20430;-75
2023/09/14 01:07:18;;;;;;;8.77;4.53;;;15.00;99.90;;;;;;5013596;28;20580;-75
2023/09/14 01:09:44;;;;;;;10.03;5.87;;;15.10;99.90;;;;;;5012635;28;20549;-72
2023/09/14 01:12:10;;;;;;;9.03;5.90;;;15.10;99.90;;;;;;5013218;28;20432;-75
2023/09/14 01:14:48;;;;;;;11.67;5.63;;;15.20;99.90;;;;;;5011830;28;20231;-75
2023/09/14 01:17:30;;;;;;;11.50;5.37;;;15.20;99.90;;;;;;5021425;28;20787;-75
2023/09/14 01:20:16;;;;;;;13.63;6.70;;;15.30;99.90;;;;;;5030868;28;20438;-78
2023/09/14 01:23:12;;;;;;;10.57;5.57;;;15.40;99.90;;;;;;5034774;28;20453;-77
2023/09/14 01:25:43;;;;;;;17.90;7.00;;;15.40;99.90;;;;;;5028527;28;20497;-78
2023/09/14 01:28:13;;;;;;;13.23;6.50;;;15.50;99.90;;;;;;5036637;28;20467;-75
2023/09/14 01:30:39;;;;;;;10.27;6.53;;;15.50;99.90;;;;;;5008833;28;20484;-75
2023/09/14 01:33:15;;;;;;;20.17;8.33;;;15.40;99.90;;;;;;5003712;28;20954;-76
2023/09/14 01:36:00;;;;;;;12.93;7.43;;;15.40;99.90;;;;;;5007835;28;20471;-74
2023/09/14 01:38:28;;;;;;;13.43;7.80;;;15.40;99.90;;;;;;5010678;28;20441;-75
2023/09/14 01:40:54;;;;;;;10.37;5.80;;;15.40;99.90;;;;;;5012351;28;20821;-75
2023/09/14 01:43:20;;;;;;;10.80;6.53;;;15.30;99.90;;;;;;5016128;28;20426;-75
2023/09/14 01:45:47;;;;;;;15.90;7.83;;;15.30;99.90;;;;;;5013041;28;20982;-75
2023/09/14 01:48:17;;;;;;;13.40;7.23;;;15.30;99.90;;;;;;5016958;28;20414;-75
2023/09/14 01:50:43;;;;;;;23.37;7.83;;;15.30;99.90;;;;;;5008269;28;20417;-75
2023/09/14 01:53:09;;;;;;;13.30;7.03;;;15.40;99.90;;;;;;5017914;28;20421;-74
2023/09/14 01:55:35;;;;;;;11.90;6.33;;;15.40;99.90;;;;;;5011295;28;20613;-74
2023/09/14 01:58:01;;;;;;;13.87;7.07;;;15.40;99.90;;;;;;5015380;28;20508;-75
2023/09/14 02:00:26;;;;;;;16.63;8.67;;;15.40;99.90;;;;;;5009325;28;20202;-75
2023/09/14 02:02:53;;;;;;;14.13;6.30;;;15.40;99.90;;;;;;5007800;28;20187;-74
2023/09/14 02:05:19;;;;;;;14.87;7.43;;;15.50;99.90;;;;;;5013307;28;20179;-75
2023/09/14 02:07:44;;;;;;;16.90;8.20;;;15.50;99.90;;;;;;5015753;28;20490;-73
2023/09/14 02:10:10;;;;;;;17.90;7.90;;;15.50;99.90;;;;;;5009188;28;20446;-75
2023/09/14 02:12:36;;;;;;;13.80;7.30;;;15.50;99.90;;;;;;5016559;28;20659;-75
2023/09/14 02:15:01;;;;;;;13.83;8.33;;;15.50;99.90;;;;;;5009469;28;20183;-75
2023/09/14 02:17:30;;;;;;;21.27;8.77;;;15.60;99.90;;;;;;5021257;28;20210;-76
2023/09/14 02:19:56;;;;;;;14.07;7.93;;;15.60;99.90;;;;;;5014538;28;20214;-75
2023/09/14 02:22:22;;;;;;;13.47;7.13;;;15.60;99.90;;;;;;5017366;28;20512;-75
2023/09/14 02:24:47;;;;;;;13.17;7.90;;;15.60;99.90;;;;;;5013146;28;20187;-75
2023/09/14 02:27:13;;;;;;;26.83;9.07;;;15.70;99.90;;;;;;5012483;28;20199;-75
2023/09/14 02:29:39;;;;;;;14.70;6.43;;;15.70;99.90;;;;;;5012915;28;20636;-76
2023/09/14 02:32:07;;;;;;;17.03;8.60;;;15.70;99.90;;;;;;5018026;28;20210;-75
2023/09/14 02:34:32;;;;;;;15.30;9.17;;;15.70;99.90;;;;;;5015087;28;20187;-75
2023/09/14 02:36:58;;;;;;;26.57;10.23;;;15.70;99.90;;;;;;5020540;28;20559;-75
2023/09/14 02:39:23;;;;;;;14.13;8.17;;;15.70;99.90;;;;;;5015522;28;20711;-75
2023/09/14 02:41:49;;;;;;;15.27;8.63;;;15.70;99.90;;;;;;5014466;28;20270;-76
2023/09/14 02:44:15;;;;;;;16.13;8.73;;;15.70;99.90;;;;;;5009113;28;20187;-75
2023/09/14 02:46:40;;;;;;;17.43;9.70;;;15.80;99.90;;;;;;5015687;28;20225;-75
2023/09/14 02:49:06;;;;;;;14.00;8.87;;;15.80;99.90;;;;;;5010781;28;20680;-75
2023/09/14 02:51:31;;;;;;;18.77;9.40;;;15.80;99.90;;;;;;5020479;28;20269;-75
2023/09/14 02:53:57;;;;;;;19.43;9.20;;;15.70;99.90;;;;;;5013092;28;20238;-75
2023/09/14 02:56:23;;;;;;;20.63;9.80;;;15.70;99.90;;;;;;5014197;28;20191;-75
2023/09/14 02:58:51;;;;;;;14.77;8.37;;;15.70;99.90;;;;;;5015444;28;20297;-74
2023/09/14 03:01:16;;;;;;;21.13;8.57;;;15.70;99.90;;;;;;5018706;28;20566;-75
2023/09/14 03:03:42;;;;;;;19.87;8.57;;;15.80;99.90;;;;;;5017966;28;20733;-75
2023/09/14 03:06:08;;;;;;;18.23;7.63;;;15.80;99.90;;;;;;5018532;28;20282;-75
2023/09/14 03:08:33;;;;;;;15.40;8.77;;;15.80;99.90;;;;;;5018074;28;20206;-74
2023/09/14 03:10:59;;;;;;;18.73;8.83;;;15.80;99.90;;;;;;5014693;28;20190;-75
2023/09/14 03:13:25;;;;;;;15.23;7.50;;;15.90;99.90;;;;;;5019855;28;20189;-75
2023/09/14 03:15:55;;;;;;;18.70;9.23;;;15.90;99.90;;;;;;5016312;28;20534;-75
2023/09/14 03:18:21;;;;;;;13.90;8.90;;;15.80;99.90;;;;;;5012233;28;20206;-76
2023/09/14 03:20:49;;;;;;;16.20;9.20;;;15.80;99.90;;;;;;5013341;28;20422;-75
2023/09/14 03:23:14;;;;;;;12.70;6.53;;;15.90;99.90;;;;;;5011814;28;20270;-75
2023/09/14 03:25:40;;;;;;;18.93;8.90;;;15.90;99.90;;;;;;5012247;28;20446;-75
2023/09/14 03:28:05;;;;;;;12.43;7.90;;;15.90;99.90;;;;;;5015987;28;20179;-75
2023/09/14 03:30:33;;;;;;;15.60;8.47;;;15.80;99.90;;;;;;5012668;28;20750;-75
2023/09/14 03:32:58;;;;;;;16.97;9.30;;;15.90;99.90;;;;;;5016671;28;20246;-74
2023/09/14 03:35:24;;;;;;;13.13;8.00;;;15.90;99.90;;;;;;5014163;28;20935;-75
2023/09/14 03:37:50;;;;;;;16.03;9.20;;;15.90;99.90;;;;;;5017427;28;20195;-75
2023/09/14 03:40:16;;;;;;;17.53;8.70;;;15.80;99.90;;;;;;5014350;28;20253;-75
2023/09/14 03:42:42;;;;;;;16.00;8.33;;;15.90;99.90;;;;;;5004364;28;20192;-75
2023/09/14 03:45:08;;;;;;;15.90;9.20;;;15.90;99.90;;;;;;5014493;28;20786;-74
2023/09/14 03:47:33;;;;;;;15.23;7.90;;;15.90;99.90;;;;;;5018220;28;20687;-75
2023/09/14 03:49:59;;;;;;;14.20;8.43;;;15.90;99.90;;;;;;5010705;28;20460;-75
2023/09/14 03:52:25;;;;;;;17.43;8.90;;;15.90;99.90;;;;;;5020672;28;20179;-75
2023/09/14 03:54:50;;;;;;;20.13;9.57;;;15.90;99.90;;;;;;5012829;28;20179;-75
2023/09/14 03:57:16;;;;;;;16.90;8.10;;;15.90;99.90;;;;;;5012945;28;20249;-75
2023/09/14 03:59:43;;;;;;;16.77;8.87;;;15.90;99.90;;;;;;5020121;28;20695;-75
2023/09/14 04:02:11;;;;;;;14.77;8.13;;;16.00;99.90;;;;;;5013150;28;20194;-75
2023/09/14 04:04:41;;;;;;;17.13;8.80;;;16.00;99.90;;;;;;5018249;28;20645;-76
2023/09/14 04:07:07;;;;;;;23.60;11.03;;;16.10;99.90;;;;;;5015927;28;20466;-75
2023/09/14 04:09:33;;;;;;;36.13;15.13;;;16.10;99.90;;;;;;5016205;28;20445;-73
2023/09/14 04:11:59;;;;;;;31.10;15.80;;;16.10;99.90;;;;;;5011793;28;20214;-76
2023/09/14 04:14:24;;;;;;;21.50;10.83;;;16.10;99.90;;;;;;5018288;28;20544;-75
2023/09/14 04:16:51;;;;;;;27.13;9.70;;;16.10;99.90;;;;;;5013710;28;20735;-76
2023/09/14 04:19:17;;;;;;;18.33;7.60;;;16.10;99.90;;;;;;5019065;28;20199;-75
2023/09/14 04:21:43;;;;;;;19.70;10.30;;;16.10;99.90;;;;;;5020011;28;21041;-76
2023/09/14 04:24:09;;;;;;;16.70;7.90;;;16.10;99.90;;;;;;5008218;28;20430;-76
2023/09/14 04:26:35;;;;;;;16.30;8.43;;;16.10;99.90;;;;;;5013129;28;20207;-76
2023/09/14 04:29:00;;;;;;;26.23;9.17;;;16.10;99.90;;;;;;5006770;28;20455;-76
2023/09/14 04:31:26;;;;;;;16.90;8.40;;;16.10;99.90;;;;;;5009908;28;20440;-76
2023/09/14 04:33:52;;;;;;;18.00;8.00;;;16.10;99.90;;;;;;5012765;28;20184;-76
2023/09/14 04:36:17;;;;;;;13.20;7.33;;;16.10;99.90;;;;;;5006501;28;20584;-76
2023/09/14 04:38:43;;;;;;;13.67;8.40;;;16.00;99.90;;;;;;5017038;28;20214;-75
2023/09/14 04:41:09;;;;;;;16.53;8.50;;;16.00;99.90;;;;;;5012209;28;20195;-75
2023/09/14 04:43:34;;;;;;;16.20;8.00;;;16.00;99.90;;;;;;5009316;28;20183;-76
2023/09/14 04:46:01;;;;;;;22.43;8.53;;;16.10;99.90;;;;;;5015809;28;20217;-76
2023/09/14 04:48:27;;;;;;;13.23;8.23;;;16.10;99.90;;;;;;5007554;28;20209;-75
2023/09/14 04:50:56;;;;;;;18.80;8.63;;;16.00;99.90;;;;;;5015815;28;20422;-76
2023/09/14 04:53:22;;;;;;;15.70;8.80;;;16.00;99.90;;;;;;5005241;28;20720;-75
2023/09/14 04:55:47;;;;;;;18.43;8.43;;;16.00;99.90;;;;;;5012064;28;20829;-76
2023/09/14 04:58:13;;;;;;;14.47;8.50;;;16.00;99.90;;;;;;5008818;28;20438;-74
2023/09/14 05:00:39;;;;;;;14.20;8.47;;;16.00;99.90;;;;;;5011288;28;20559;-75
2023/09/14 05:03:05;;;;;;;17.90;9.07;;;16.00;99.90;;;;;;5015173;28;20194;-76
2023/09/14 05:05:32;;;;;;;13.37;7.73;;;16.00;99.90;;;;;;5010908;28;20186;-75
2023/09/14 05:07:58;;;;;;;17.27;8.57;;;16.00;99.90;;;;;;5015001;28;20512;-76
2023/09/14 05:10:25;;;;;;;24.10;9.50;;;16.00;99.90;;;;;;5011135;28;20426;-76
2023/09/14 05:12:51;;;;;;;17.93;8.03;;;16.00;99.90;;;;;;5018866;28;20820;-76
2023/09/14 05:15:17;;;;;;;19.00;8.80;;;16.00;99.90;;;;;;5009581;28;20434;-76
2023/09/14 05:17:43;;;;;;;16.17;8.67;;;16.00;99.90;;;;;;5004679;28;20690;-76
2023/09/14 05:20:10;;;;;;;17.50;7.87;;;16.00;99.90;;;;;;5009897;28;20833;-75
2023/09/14 05:22:38;;;;;;;11.63;6.57;;;15.90;99.90;;;;;;5012952;28;20545;-74
2023/09/14 05:25:07;;;;;;;16.10;8.50;;;15.90;99.90;;;;;;5006433;28;20438;-76
2023/09/14 05:27:40;;;;;;;16.93;7.67;;;15.90;99.90;;;;;;5012264;28;20469;-72
2023/09/14 05:30:10;;;;;;;12.43;7.70;;;15.90;99.90;;;;;;5009041;28;20989;-75
2023/09/14 05:32:36;;;;;;;15.90;7.90;;;15.90;99.90;;;;;;5014085;28;20994;-75
2023/09/14 05:35:02;;;;;;;15.40;8.13;;;16.00;99.90;;;;;;5013568;28;20440;-75
2023/09/14 05:37:28;;;;;;;13.50;8.03;;;16.00;99.90;;;;;;5018801;28;20421;-73
2023/09/14 05:39:54;;;;;;;15.00;9.57;;;16.00;99.90;;;;;;5024875;28;20464;-74
2023/09/14 05:42:21;;;;;;;21.63;12.30;;;16.00;99.90;;;;;;5042795;28;20179;-78
2023/09/14 05:44:48;;;;;;;15.30;10.00;;;16.00;99.90;;;;;;5037202;28;20456;-78
2023/09/14 05:47:14;;;;;;;15.50;9.17;;;16.10;99.90;;;;;;5034771;28;20476;-78
2023/09/14 05:49:40;;;;;;;18.73;11.17;;;16.10;99.90;;;;;;5028583;28;20457;-75
2023/09/14 05:52:05;;;;;;;18.00;11.60;;;16.10;99.90;;;;;;5005320;28;20552;-75
2023/09/14 05:54:31;;;;;;;15.70;10.40;;;16.10;99.90;;;;;;5004281;28;20194;-75
2023/09/14 05:56:56;;;;;;;22.87;10.43;;;16.20;99.90;;;;;;5009020;28;20191;-76
2023/09/14 05:59:22;;;;;;;16.53;9.73;;;16.30;99.90;;;;;;5008666;28;20211;-75
2023/09/14 06:01:48;;;;;;;15.00;10.00;;;16.30;99.90;;;;;;5011523;28;20226;-75
2023/09/14 06:04:13;;;;;;;17.23;10.10;;;16.30;99.90;;;;;;5011896;28;20597;-75
2023/09/14 06:06:39;;;;;;;17.83;9.80;;;16.30;99.90;;;;;;5011875;28;20218;-75
2023/09/14 06:09:05;;;;;;;15.63;9.53;;;16.30;99.90;;;;;;5002254;28;20198;-76
2023/09/14 06:11:30;;;;;;;19.40;9.97;;;16.40;99.90;;;;;;5005168;28;20179;-77
2023/09/14 06:13:56;;;;;;;18.50;10.20;;;16.40;99.90;;;;;;5016121;28;20663;-76
2023/09/14 06:16:22;;;;;;;19.90;8.20;;;16.30;99.90;;;;;;5009092;28;20191;-76
2023/09/14 06:18:47;;;;;;;13.97;9.37;;;16.40;99.90;;;;;;5013874;28;20669;-75
2023/09/14 06:21:13;;;;;;;16.50;9.50;;;16.40;99.90;;;;;;5012919;28;20706;-76
2023/09/14 06:23:41;;;;;;;14.20;8.40;;;16.40;99.90;;;;;;5006835;28;20186;-76
2023/09/14 06:26:07;;;;;;;11.10;8.30;;;16.50;99.90;;;;;;5010808;28;20579;-76
2023/09/14 06:28:32;;;;;;;15.77;8.70;;;16.50;99.90;;;;;;5008657;28;20460;-76
2023/09/14 06:30:59;;;;;;;13.70;8.33;;;16.50;99.90;;;;;;5010351;28;20218;-76
2023/09/14 06:33:24;;;;;;;21.73;8.17;;;16.50;99.90;;;;;;5011951;28;20618;-75
2023/09/14 06:35:50;;;;;;;15.00;8.27;;;16.50;99.90;;;;;;5010945;28;20496;-75
2023/09/14 06:38:16;;;;;;;16.83;8.33;;;16.60;99.90;;;;;;5009447;28;20195;-75
2023/09/14 06:40:41;;;;;;;17.10;8.30;;;16.60;99.90;;;;;;5009986;28;20261;-76
2023/09/14 06:43:07;;;;;;;13.73;9.50;;;16.60;99.90;;;;;;5016377;28;20261;-75
2023/09/14 06:45:33;;;;;;;14.03;7.97;;;16.60;99.90;;;;;;5009578;28;20175;-76
2023/09/14 06:47:59;;;;;;;18.90;9.10;;;16.60;99.90;;;;;;5017356;28;20425;-75
2023/09/14 06:50:25;;;;;;;13.50;8.67;;;16.60;99.90;;;;;;5009109;28;20293;-75
2023/09/14 06:52:51;;;;;;;12.73;7.97;;;16.60;99.90;;;;;;5016968;28;20524;-76
2023/09/14 06:55:17;;;;;;;14.77;8.50;;;16.60;99.90;;;;;;5007414;28;20175;-76
2023/09/14 06:57:42;;;;;;;14.73;10.30;;;16.50;99.90;;;;;;5006883;28;20184;-75
2023/09/14 07:00:14;;;;;;;28.17;8.57;;;16.60;99.90;;;;;;5008569;28;20673;-75
2023/09/14 07:02:40;;;;;;;11.90;8.50;;;16.50;99.90;;;;;;5012099;28;20214;-76
2023/09/14 07:05:06;;;;;;;16.60;9.40;;;16.60;99.90;;;;;;5017706;28;20434;-75
2023/09/14 07:07:31;;;;;;;12.27;7.73;;;16.60;99.90;;;;;;5016164;28;20461;-76
2023/09/14 07:09:57;;;;;;;12.07;8.43;;;16.60;99.90;;;;;;5011187;28;20204;-76
2023/09/14 07:12:23;;;;;;;11.03;7.53;;;16.70;99.90;;;;;;5010738;28;20258;-75
2023/09/14 07:14:49;;;;;;;14.20;7.83;;;16.70;99.90;;;;;;5013368;28;20183;-76
2023/09/14 07:17:16;;;;;;;12.03;8.00;;;16.70;99.90;;;;;;5005245;28;20178;-75
2023/09/14 07:19:42;;;;;;;11.50;7.30;;;16.70;99.90;;;;;;5009179;28;20464;-76
2023/09/14 07:22:07;;;;;;;10.50;7.17;;;16.80;99.90;;;;;;5015785;28;20430;-75
2023/09/14 07:24:33;;;;;;;19.33;8.37;;;16.80;99.90;;;;;;5009449;28;20652;-75
2023/09/14 07:26:59;;;;;;;8.97;7.00;;;16.80;99.90;;;;;;5005782;28;20305;-75
2023/09/14 07:29:25;;;;;;;16.20;8.13;;;16.90;99.90;;;;;;5000941;28;20801;-75
2023/09/14 07:31:51;;;;;;;11.33;7.53;;;16.90;99.90;;;;;;5008763;28;20426;-74
2023/09/14 07:34:17;;;;;;;11.43;7.83;;;16.90;99.90;;;;;;5013641;28;20210;-77
2023/09/14 07:36:42;;;;;;;13.00;8.57;;;16.80;99.90;;;;;;5015712;28;20195;-77
2023/09/14 07:39:08;;;;;;;13.10;7.83;;;16.90;99.90;;;;;;5007389;28;20994;-74
2023/09/14 07:41:34;;;;;;;12.37;7.60;;;16.90;99.90;;;;;;5018218;28;20319;-75
2023/09/14 07:43:59;;;;;;;16.23;8.90;;;16.80;99.90;;;;;;5012306;28;20184;-75
2023/09/14 07:46:25;;;;;;;11.67;7.43;;;16.80;99.90;;;;;;5021658;28;20210;-74
2023/09/14 07:48:50;;;;;;;15.37;7.10;;;16.90;99.90;;;;;;5010625;28;20620;-74
2023/09/14 07:51:16;;;;;;;14.57;8.37;;;17.00;99.90;;;;;;5013172;28;20182;-75
2023/09/14 07:53:42;;;;;;;10.70;7.60;;;17.10;99.90;;;;;;5007308;28;20270;-74
2023/09/14 07:56:07;;;;;;;10.63;7.47;;;17.20;99.90;;;;;;5011314;28;20202;-74
2023/09/14 07:58:33;;;;;;;13.37;7.20;;;17.10;99.90;;;;;;5013330;28;20242;-73
2023/09/14 08:00:58;;;;;;;17.57;6.93;;;17.20;99.90;;;;;;5004343;28;20270;-75
2023/09/14 08:03:25;;;;;;;9.70;6.83;;;17.20;99.90;;;;;;5015764;28;20191;-74
2023/09/14 08:05:52;;;;;;;9.93;7.40;;;17.30;99.90;;;;;;5007736;28;20190;-74
2023/09/14 08:08:17;;;;;;;14.20;7.17;;;17.30;99.90;;;;;;5012373;28;20438;-75
2023/09/14 08:10:53;;;;;;;10.87;6.27;;;17.50;99.90;;;;;;5004989;28;20436;-74
2023/09/14 08:13:19;;;;;;;9.87;7.10;;;17.70;99.90;;;;;;5001339;28;20190;-75
2023/09/14 08:15:45;;;;;;;11.90;7.30;;;17.70;99.90;;;;;;5006883;28;20839;-74
2023/09/14 08:18:11;;;;;;;10.63;7.50;;;17.70;99.90;;;;;;5008547;28;20517;-73
2023/09/14 08:20:43;;;;;;;11.83;6.20;;;17.70;99.90;;;;;;5007609;28;20426;-74
2023/09/14 08:23:10;;;;;;;25.83;7.43;;;17.70;99.90;;;;;;5012307;28;20179;-75
2023/09/14 08:25:46;;;;;;;12.23;7.50;;;17.90;99.90;;;;;;5007136;28;20430;-74
2023/09/14 08:28:16;;;;;;;10.90;6.63;;;17.80;99.90;;;;;;5008941;28;20436;-75
2023/09/14 08:30:43;;;;;;;8.63;5.80;;;17.80;99.90;;;;;;5014194;28;20422;-74
2023/09/14 08:33:10;;;;;;;11.60;7.20;;;17.70;99.90;;;;;;5015509;28;20421;-75
2023/09/14 08:35:36;;;;;;;20.63;7.00;;;17.80;99.90;;;;;;5010556;28;20418;-75
2023/09/14 08:38:06;;;;;;;26.07;6.70;;;17.80;99.90;;;;;;5017181;28;20529;-75
2023/09/14 08:40:33;;;;;;;10.80;6.83;;;17.80;99.90;;;;;;5009156;28;20441;-76
2023/09/14 08:43:00;;;;;;;16.60;8.10;;;17.80;99.90;;;;;;5011004;28;20428;-75
2023/09/14 08:45:30;;;;;;;11.97;6.73;;;17.70;99.90;;;;;;5013531;28;20764;-76
2023/09/14 08:47:57;;;;;;;13.50;8.03;;;17.80;99.90;;;;;;5011527;28;20477;-76
2023/09/14 08:50:25;;;;;;;10.83;7.10;;;18.00;99.90;;;;;;5008350;28;20512;-76
2023/09/14 08:52:50;;;;;;;13.90;6.60;;;18.10;99.90;;;;;;5009417;28;20430;-75
2023/09/14 08:55:21;;;;;;;11.57;7.27;;;18.30;99.90;;;;;;4999767;28;20437;-76
2023/09/14 08:57:47;;;;;;;10.37;7.30;;;18.50;99.90;;;;;;5009869;28;20198;-75
2023/09/14 09:00:17;;;;;;;11.60;6.87;;;18.40;99.90;;;;;;5005316;28;20450;-75
2023/09/14 09:02:50;;;;;;;11.23;6.93;;;18.40;99.90;;;;;;5007470;28;20428;-76
2023/09/14 09:05:17;;;;;;;7.30;5.00;;;18.50;99.90;;;;;;5011686;28;20854;-75
2023/09/14 09:07:44;;;;;;;9.97;5.47;;;18.70;99.90;;;;;;5007641;28;20484;-75
2023/09/14 09:10:21;;;;;;;12.37;6.67;;;18.90;99.90;;;;;;5007222;28;20438;-76
2023/09/14 09:12:50;;;;;;;8.70;6.10;;;18.70;99.90;;;;;;5013312;28;20422;-77
2023/09/14 09:15:17;;;;;;;11.50;5.63;;;18.80;99.90;;;;;;5010672;28;20501;-75
2023/09/14 09:17:44;;;;;;;16.10;6.33;;;18.90;99.90;;;;;;5013443;28;20502;-75
2023/09/14 09:20:22;;;;;;;9.83;6.03;;;18.80;99.90;;;;;;5011277;28;20457;-76
2023/09/14 09:22:50;;;;;;;9.37;5.73;;;18.80;99.90;;;;;;5016612;28;20448;-76
2023/09/14 09:25:17;;;;;;;9.83;5.80;;;18.90;99.90;;;;;;5008115;28;20432;-76
2023/09/14 09:27:44;;;;;;;10.33;6.27;;;18.90;99.90;;;;;;4999323;28;20470;-75
2023/09/14 09:30:10;;;;;;;10.80;6.13;;;18.80;99.90;;;;;;5008209;28;20551;-76
2023/09/14 09:32:37;;;;;;;10.53;4.30;;;18.70;99.90;;;;;;5009924;28;20430;-76
2023/09/14 09:35:17;;;;;;;12.87;6.60;;;18.50;99.90;;;;;;5007976;28;20425;-75
2023/09/14 09:37:43;;;;;;;13.50;7.30;;;18.80;99.90;;;;;;5008441;28;20426;-77
2023/09/14 09:40:17;;;;;;;9.90;4.70;;;18.90;99.90;;;;;;5011621;28;20834;-76
2023/09/14 09:42:43;;;;;;;12.30;6.37;;;18.90;99.90;;;;;;5008029;28;20179;-76
2023/09/14 09:45:11;;;;;;;12.13;6.60;;;18.90;99.90;;;;;;5010844;28;20425;-75
2023/09/14 09:47:37;;;;;;;9.73;4.97;;;18.70;99.90;;;;;;5014335;28;20465;-75
2023/09/14 09:50:11;;;;;;;8.47;5.90;;;19.00;99.90;;;;;;5006336;28;20453;-76
2023/09/14 09:52:38;;;;;;;9.30;5.80;;;19.00;99.90;;;;;;5013701;28;20914;-77
2023/09/14 09:55:05;;;;;;;10.50;5.20;;;19.10;99.90;;;;;;5011585;28;20468;-76
2023/09/14 09:57:35;;;;;;;14.50;5.07;;;19.40;99.90;;;;;;5014585;28;20806;-74
2023/09/14 10:00:14;;;;;;;6.80;4.03;;;19.40;99.90;;;;;;5009474;28;20453;-75
2023/09/14 10:02:41;;;;;;;6.30;3.90;;;19.40;99.90;;;;;;5006250;28;20459;-76
2023/09/14 10:05:07;;;;;;;8.50;4.13;;;19.60;99.90;;;;;;5006951;28;20526;-76
2023/09/14 10:07:40;;;;;;;5.77;3.50;;;19.60;99.90;;;;;;5012019;28;20572;-74
2023/09/14 10:10:10;;;;;;;9.57;4.70;;;19.70;99.90;;;;;;5012602;28;20445;-76
2023/09/14 10:12:38;;;;;;;6.67;3.67;;;19.90;99.90;;;;;;5014165;28;20939;-75
2023/09/14 10:15:05;;;;;;;6.80;3.60;;;20.10;99.90;;;;;;5017510;28;20434;-78
2023/09/14 10:17:31;;;;;;;6.10;3.37;;;20.30;99.90;;;;;;5038909;28;20422;-76
2023/09/14 10:20:02;;;;;;;6.70;3.03;;;20.30;99.90;;;;;;5035532;28;20432;-77
2023/09/14 10:22:29;;;;;;;6.40;3.23;;;20.60;99.90;;;;;;5040780;28;20163;-78
2023/09/14 10:24:55;;;;;;;9.47;4.13;;;20.70;99.90;;;;;;5038521;28;20433;-76
2023/09/14 10:27:21;;;;;;;4.57;3.13;;;20.70;99.90;;;;;;5014585;28;20474;-77
2023/09/14 10:29:49;;;;;;;7.00;4.00;;;20.80;99.90;;;;;;5007575;28;20441;-75
2023/09/14 10:32:17;;;;;;;6.13;3.43;;;20.70;99.90;;;;;;5011392;28;20491;-75
2023/09/14 10:34:44;;;;;;;6.73;3.43;;;20.50;99.90;;;;;;5010028;28;20440;-76
2023/09/14 10:37:10;;;;;;;5.33;2.90;;;20.50;99.90;;;;;;5010479;28;20800;-75
2023/09/14 10:39:37;;;;;;;6.93;3.33;;;20.40;99.90;;;;;;5008900;28;20461;-76
2023/09/14 10:42:04;;;;;;;5.97;3.30;;;20.40;99.90;;;;;;5008538;28;20479;-75
2023/09/14 10:44:31;;;;;;;5.90;3.57;;;20.60;99.90;;;;;;5017054;28;20486;-75
2023/09/14 10:46:59;;;;;;;4.87;3.13;;;20.90;99.90;;;;;;5016412;28;20476;-76
2023/09/14 10:49:28;;;;;;;6.53;3.37;;;21.00;99.90;;;;;;5011389;28;20540;-76
2023/09/14 10:51:55;;;;;;;6.10;2.97;;;21.30;99.90;;;;;;5016936;28;20425;-76
2023/09/14 10:54:25;;;;;;;14.87;3.63;;;21.40;99.90;;;;;;5003565;28;20437;-76
2023/09/14 10:56:59;;;;;;;4.30;2.50;;;21.40;99.90;;;;;;5019488;28;20416;-75
2023/09/14 10:59:50;;;;;;;6.47;2.73;;;21.40;99.90;;;;;;5012069;28;20991;-76
2023/09/14 11:02:38;;;;;;;10.53;2.97;;;21.50;99.90;;;;;;5011069;28;20434;-76
2023/09/14 11:05:17;;;;;;;5.20;3.23;;;21.40;99.90;;;;;;5012879;28;20430;-77
2023/09/14 11:07:44;;;;;;;9.30;4.50;;;21.50;99.90;;;;;;5016706;28;20457;-76
2023/09/14 11:10:17;;;;;;;5.33;3.20;;;21.70;99.90;;;;;;5017285;28;20445;-77
2023/09/14 11:12:43;;;;;;;7.60;2.93;;;22.00;99.90;;;;;;5018767;28;20412;-77
2023/09/14 11:15:22;;;;;;;5.30;2.77;;;22.00;99.90;;;;;;5009915;28;20508;-77
2023/09/14 11:17:52;;;;;;;4.90;2.40;;;22.10;99.90;;;;;;5017310;28;20869;-77
2023/09/14 11:20:20;;;;;;;18.63;2.97;;;22.40;99.90;;;;;;5015225;28;20448;-77
2023/09/14 11:22:50;;;;;;;9.03;2.50;;;22.30;99.40;;;;;;5016128;28;20471;-77
2023/09/14 11:25:27;;;;;;;4.70;2.50;;;22.30;99.70;;;;;;5010617;28;20444;-76
2023/09/14 11:27:52;;;;;;;4.13;2.60;;;22.30;99.30;;;;;;5004325;28;20591;-77
2023/09/14 11:30:20;;;;;;;3.93;1.50;;;22.40;98.60;;;;;;5010280;28;20928;-76
2023/09/14 11:32:46;;;;;;;10.97;1.80;;;22.30;98.20;;;;;;5024321;28;20280;-77
2023/09/14 11:35:12;;;;;;;2.83;2.07;;;21.90;99.70;;;;;;5016748;28;20771;-77
2023/09/14 11:37:40;;;;;;;4.47;2.20;;;22.40;98.60;;;;;;5008451;28;20429;-76
2023/09/14 11:40:12;;;;;;;3.40;2.10;;;22.40;98.20;;;;;;5014330;28;20472;-76
2023/09/14 11:43:23;;;;;;;3.57;2.10;;;22.60;99.40;;;;;;5014436;28;20437;-77
2023/09/14 11:45:57;;;;;;;3.60;1.67;;;22.70;98.40;;;;;;5020915;28;20507;-74
2023/09/14 11:48:23;;;;;;;9.93;2.50;;;22.80;96.60;;;;;;5012993;28;20479;-75
2023/09/14 11:50:50;;;;;;;4.80;1.80;;;22.80;97.10;;;;;;5011058;28;20840;-75
2023/09/14 11:53:19;;;;;;;6.53;1.97;;;22.60;97.30;;;;;;5013963;28;20783;-77
2023/09/14 11:55:46;;;;;;;4.73;1.80;;;22.70;96.60;;;;;;5012418;28;20472;-77
2023/09/14 11:58:13;;;;;;;4.27;1.93;;;22.40;98.10;;;;;;5018802;28;20715;-77
2023/09/14 12:00:43;;;;;;;17.90;1.80;;;22.10;99.70;;;;;;5012697;28;20414;-77
2023/09/14 12:03:08;;;;;;;6.70;1.67;;;22.00;99.30;;;;;;5013033;28;20767;-77
2023/09/14 12:05:35;;;;;;;5.83;1.70;;;22.20;99.30;;;;;;5012211;28;20445;-77
2023/09/14 12:08:13;;;;;;;2.53;1.30;;;22.00;99.00;;;;;;5020699;28;20591;-76
2023/09/14 12:10:39;;;;;;;3.43;1.70;;;21.90;99.60;;;;;;5009265;28;20854;-76
2023/09/14 12:13:17;;;;;;;2.83;1.43;;;22.20;99.20;;;;;;5019443;28;20425;-77
2023/09/14 12:15:45;;;;;;;7.73;2.13;;;22.60;99.00;;;;;;5003058;28;20414;-77
2023/09/14 12:18:11;;;;;;;2.47;1.43;;;23.00;98.20;;;;;;5015754;28;20449;-74
2023/09/14 12:20:41;;;;;;;4.93;2.40;;;23.30;98.10;;;;;;5011609;28;20421;-76
2023/09/14 12:23:09;;;;;;;4.23;1.90;;;23.30;97.90;;;;;;5010098;28;20420;-77
2023/09/14 12:25:36;;;;;;;2.90;1.57;;;22.90;98.20;;;;;;5008619;28;20432;-76
2023/09/14 12:28:03;;;;;;;3.43;1.50;;;23.10;98.50;;;;;;5019750;28;20471;-75
2023/09/14 12:30:30;;;;;;;2.83;1.10;;;22.80;97.90;;;;;;5011956;28;20426;-76
2023/09/14 12:32:56;;;;;;;3.87;1.50;;;22.80;97.70;;;;;;5021814;28;20428;-77
2023/09/14 12:35:23;;;;;;;3.87;2.07;;;22.60;97.40;;;;;;5011991;28;20479;-77
2023/09/14 12:37:50;;;;;;;3.00;1.50;;;22.10;97.70;;;;;;5019869;28;20425;-77
2023/09/14 12:40:16;;;;;;;2.53;1.57;;;22.00;98.10;;;;;;5013890;28;20834;-76
2023/09/14 12:42:42;;;;;;;5.63;1.80;;;22.30;98.30;;;;;;5011793;28;20425;-77